Time;durP1;ratioP1;P1;durP2;ratioP2;P2;SDS_P1;SDS_P2;PMS_P1;PMS_P2;Temp;Humidity;BMP_temperature;BMP_pressure;BME280_temperature;BME280_humidity;BME280_pressure;Samples;Min_cycle;Max_cycle;Signal;HPM_P1;HPM_P2
2023/09/18 00:01:22;;;;;;;32.92;16.67;;;;;;;;;;10446697;28;20122;-82
2023/09/18 00:06:25;;;;;;;30.25;16.38;;;;;;;;;;10396753;28;20052;-80
2023/09/18 00:11:25;;;;;;;27.77;17.85;;;;;;;;;;10464980;28;20051;-80
2023/09/18 00:16:27;;;;;;;28.80;18.13;;;;;;;;;;10417318;28;20067;-80
2023/09/18 00:21:30;;;;;;;33.20;19.33;;;;;;;;;;10432684;28;20076;-76
2023/09/18 00:26:30;;;;;;;31.00;20.67;;;;;;;;;;10429393;28;20235;-79
2023/09/18 00:31:32;;;;;;;37.15;23.08;;;;;;;;;;10446816;28;20404;-77
2023/09/18 00:36:33;;;;;;;35.03;22.20;;;;;;;;;;10438550;28;20170;-76
2023/09/18 00:41:33;;;;;;;37.30;22.00;;;;;;;;;;10444235;28;20187;-73
2023/09/18 00:46:34;;;;;;;35.33;23.67;;;;;;;;;;10434163;28;20033;-80
2023/09/18 00:51:35;;;;;;;40.58;23.95;;;;;;;;;;10465527;28;20270;-79
2023/09/18 00:56:35;;;;;;;40.08;24.27;;;;;;;;;;10423342;28;20123;-72
2023/09/18 01:01:36;;;;;;;34.08;22.63;;;;;;;;;;10413250;28;20029;-76
2023/09/18 01:06:36;;;;;;;36.72;22.90;;;;;;;;;;10428383;28;20025;-78
2023/09/18 01:11:58;;;;;;;37.87;24.97;;;;;;;;;;10451875;28;20530;-80
2023/09/18 01:17:01;;;;;;;34.75;21.77;;;;;;;;;;10425137;28;20049;-80
2023/09/18 01:22:06;;;;;;;36.58;20.80;;;;;;;;;;10369231;28;20030;-72
2023/09/18 01:27:08;;;;;;;30.27;19.50;;;;;;;;;;10352668;28;20022;-85
2023/09/18 01:32:09;;;;;;;27.80;18.73;;;;;;;;;;10328887;28;20037;-84
2023/09/18 01:37:11;;;;;;;26.02;15.55;;;;;;;;;;10372753;28;20032;-81
2023/09/18 01:42:13;;;;;;;23.95;16.85;;;;;;;;;;10334767;28;20034;-84
2023/09/18 01:47:20;;;;;;;23.88;17.08;;;;;;;;;;10359234;28;20026;-82
2023/09/18 01:52:21;;;;;;;29.25;16.77;;;;;;;;;;10363047;28;20552;-77
2023/09/18 01:57:22;;;;;;;28.77;17.52;;;;;;;;;;10360978;28;20045;-78
2023/09/18 02:02:23;;;;;;;30.30;17.95;;;;;;;;;;10354674;28;20387;-78
2023/09/18 02:07:25;;;;;;;31.60;19.52;;;;;;;;;;10357705;28;20414;-71
2023/09/18 02:12:26;;;;;;;28.70;17.15;;;;;;;;;;10368940;28;20059;-72
2023/09/18 02:17:27;;;;;;;27.33;17.13;;;;;;;;;;10405880;28;20081;-78
2023/09/18 02:22:27;;;;;;;26.50;18.42;;;;;;;;;;10393509;28;20480;-83
2023/09/18 02:27:27;;;;;;;26.92;16.98;;;;;;;;;;10390170;28;20045;-78
2023/09/18 02:32:28;;;;;;;25.65;16.40;;;;;;;;;;10391911;28;20029;-82
2023/09/18 02:37:29;;;;;;;30.02;16.17;;;;;;;;;;10360995;28;20029;-81
2023/09/18 02:42:31;;;;;;;22.00;15.80;;;;;;;;;;10412186;28;20029;-78
2023/09/18 02:47:33;;;;;;;22.45;15.18;;;;;;;;;;10390594;28;20029;-82
2023/09/18 02:52:34;;;;;;;23.08;16.25;;;;;;;;;;10406234;28;20038;-78
2023/09/18 02:57:35;;;;;;;23.40;16.70;;;;;;;;;;10412522;28;20048;-78
2023/09/18 03:02:37;;;;;;;24.42;16.42;;;;;;;;;;10395914;28;20029;-74
2023/09/18 03:07:37;;;;;;;24.20;17.08;;;;;;;;;;10396979;28;20084;-84
2023/09/18 03:12:38;;;;;;;23.58;16.35;;;;;;;;;;10393545;28;20126;-76
2023/09/18 03:17:40;;;;;;;28.38;19.05;;;;;;;;;;10368074;28;20120;-80
2023/09/18 03:22:41;;;;;;;32.00;17.40;;;;;;;;;;10380689;28;20026;-78
2023/09/18 03:27:53;;;;;;;33.92;18.88;;;;;;;;;;10397060;28;20028;-81
2023/09/18 03:32:55;;;;;;;34.28;19.33;;;;;;;;;;10360080;28;20033;-74
2023/09/18 03:37:55;;;;;;;34.60;18.73;;;;;;;;;;10377399;28;20041;-83
2023/09/18 03:42:57;;;;;;;40.90;22.23;;;;;;;;;;10373500;28;20037;-70
2023/09/18 03:47:57;;;;;;;35.70;20.00;;;;;;;;;;10375519;28;20187;-74
2023/09/18 03:52:58;;;;;;;36.80;19.77;;;;;;;;;;10386587;28;20025;-79
2023/09/18 03:58:01;;;;;;;33.40;20.08;;;;;;;;;;10370797;28;20533;-81
2023/09/18 04:03:02;;;;;;;40.88;20.90;;;;;;;;;;10372102;28;20087;-77
2023/09/18 04:08:02;;;;;;;30.33;18.90;;;;;;;;;;10357863;28;20037;-83
2023/09/18 04:13:03;;;;;;;37.63;21.55;;;;;;;;;;10385608;28;20033;-79
2023/09/18 04:18:06;;;;;;;37.60;21.20;;;;;;;;;;10377179;28;20071;-79
2023/09/18 04:23:24;;;;;;;38.97;21.88;;;;;;;;;;10391702;28;20045;-75
2023/09/18 04:28:26;;;;;;;43.88;23.10;;;;;;;;;;10361007;28;20469;-76
2023/09/18 04:33:28;;;;;;;46.75;23.98;;;;;;;;;;10384469;28;20040;-80
2023/09/18 04:38:28;;;;;;;40.50;21.65;;;;;;;;;;10380152;28;20105;-78
2023/09/18 04:43:34;;;;;;;38.78;21.38;;;;;;;;;;10394781;28;20025;-70
2023/09/18 04:48:36;;;;;;;45.15;21.77;;;;;;;;;;10414141;28;20480;-78
2023/09/18 04:53:42;;;;;;;37.43;22.00;;;;;;;;;;10364856;28;20032;-85
2023/09/18 04:58:44;;;;;;;38.03;20.83;;;;;;;;;;10402274;28;20147;-79
2023/09/18 05:03:44;;;;;;;55.25;22.63;;;;;;;;;;10384855;28;20383;-79
2023/09/18 05:08:45;;;;;;;39.08;20.85;;;;;;;;;;10381703;28;20018;-83
2023/09/18 05:13:47;;;;;;;37.33;22.40;;;;;;;;;;10375560;28;20030;-81
2023/09/18 05:18:48;;;;;;;46.15;20.42;;;;;;;;;;10386836;28;20042;-77
2023/09/18 05:23:49;;;;;;;33.80;18.77;;;;;;;;;;10322066;28;20049;-82
2023/09/18 05:28:50;;;;;;;40.33;21.50;;;;;;;;;;10342491;28;20052;-79
2023/09/18 05:34:01;;;;;;;39.20;19.75;;;;;;;;;;10324982;28;20129;-82
2023/09/18 05:39:09;;;;;;;37.20;20.67;;;;;;;;;;10354453;28;20129;-84
2023/09/18 05:44:14;;;;;;;33.22;19.77;;;;;;;;;;10333124;28;20145;-77
2023/09/18 05:49:14;;;;;;;34.67;19.55;;;;;;;;;;10330068;28;20533;-77
2023/09/18 05:54:14;;;;;;;35.22;17.75;;;;;;;;;;10335508;28;20037;-80
2023/09/18 05:59:16;;;;;;;31.52;18.98;;;;;;;;;;10328951;28;20507;-77
2023/09/18 06:04:16;;;;;;;33.95;18.30;;;;;;;;;;10337394;28;20519;-79
2023/09/18 06:09:18;;;;;;;28.17;16.67;;;;;;;;;;10347854;28;20026;-82
2023/09/18 06:14:18;;;;;;;29.20;16.95;;;;;;;;;;10326486;28;20103;-76
2023/09/18 06:19:18;;;;;;;29.30;14.82;;;;;;;;;;10331870;28;20069;-82
2023/09/18 06:24:19;;;;;;;30.47;16.13;;;;;;;;;;10333508;28;20022;-78
2023/09/18 06:29:20;;;;;;;25.52;13.57;;;;;;;;;;10357052;28;20822;-77
2023/09/18 06:34:21;;;;;;;24.00;13.07;;;;;;;;;;10366463;28;20030;-78
2023/09/18 06:39:23;;;;;;;21.80;11.83;;;;;;;;;;10313453;28;20030;-78
2023/09/18 06:44:25;;;;;;;22.63;12.00;;;;;;;;;;10329881;28;20049;-79
2023/09/18 06:49:31;;;;;;;19.53;11.90;;;;;;;;;;10328940;28;20038;-73
2023/09/18 06:54:33;;;;;;;20.70;13.73;;;;;;;;;;10372261;28;20686;-77
2023/09/18 06:59:34;;;;;;;21.52;11.77;;;;;;;;;;10343258;28;20030;-71
2023/09/18 07:04:45;;;;;;;25.42;12.55;;;;;;;;;;10327225;28;20038;-74
2023/09/18 07:09:47;;;;;;;20.85;11.75;;;;;;;;;;10347711;28;20119;-78
2023/09/18 07:14:49;;;;;;;18.45;11.43;;;;;;;;;;10336633;28;20041;-85
2023/09/18 07:19:51;;;;;;;17.25;10.40;;;;;;;;;;10340515;28;20114;-81
2023/09/18 07:24:51;;;;;;;19.27;10.50;;;;;;;;;;10345581;28;20038;-81
2023/09/18 07:29:55;;;;;;;15.57;9.80;;;;;;;;;;10340594;28;20017;-73
2023/09/18 07:34:56;;;;;;;18.90;11.52;;;;;;;;;;10373204;28;20177;-72
2023/09/18 07:40:00;;;;;;;15.50;9.85;;;;;;;;;;10359619;28;20098;-76
2023/09/18 07:45:03;;;;;;;15.83;9.87;;;;;;;;;;10369267;28;20045;-82
2023/09/18 07:50:04;;;;;;;17.38;10.57;;;;;;;;;;10331330;28;20053;-76
2023/09/18 07:55:04;;;;;;;16.05;9.75;;;;;;;;;;10330019;28;20091;-74
2023/09/18 08:00:07;;;;;;;18.45;10.82;;;;;;;;;;10328971;28;20520;-77
2023/09/18 08:05:08;;;;;;;11.05;7.82;;;;;;;;;;10324509;28;20073;-76
2023/09/18 08:10:10;;;;;;;11.93;8.25;;;;;;;;;;10323181;28;20040;-85
2023/09/18 08:15:11;;;;;;;12.65;8.90;;;;;;;;;;10337332;28;20076;-82
2023/09/18 08:20:14;;;;;;;13.50;9.32;;;;;;;;;;10364063;28;20113;-75
2023/09/18 08:25:14;;;;;;;12.93;9.27;;;;;;;;;;10365044;28;20024;-76
2023/09/18 08:30:15;;;;;;;15.17;10.37;;;;;;;;;;10381004;28;20032;-73
2023/09/18 08:35:17;;;;;;;14.88;9.98;;;;;;;;;;10367156;28;20023;-76
2023/09/18 08:40:17;;;;;;;14.80;8.90;;;;;;;;;;10365107;28;20040;-76
2023/09/18 08:45:41;;;;;;;14.17;8.03;;;;;;;;;;10371582;28;20036;-81
2023/09/18 08:50:42;;;;;;;15.57;8.90;;;;;;;;;;10376620;28;20017;-81
2023/09/18 08:55:42;;;;;;;16.65;8.90;;;;;;;;;;10393065;28;20087;-80
2023/09/18 09:00:42;;;;;;;14.73;8.93;;;;;;;;;;10368679;28;20390;-82
2023/09/18 09:05:43;;;;;;;15.55;8.25;;;;;;;;;;10393465;28;20017;-80
2023/09/18 09:10:43;;;;;;;14.18;8.45;;;;;;;;;;10380492;28;20053;-79
2023/09/18 09:15:49;;;;;;;16.60;8.52;;;;;;;;;;10374390;28;20082;-79
2023/09/18 09:20:57;;;;;;;14.10;8.30;;;;;;;;;;10409921;28;20060;-81
2023/09/18 09:26:14;;;;;;;12.82;7.88;;;;;;;;;;10422513;28;20039;-84
2023/09/18 09:31:27;;;;;;;16.45;7.93;;;;;;;;;;10426760;28;20394;-75
2023/09/18 09:36:28;;;;;;;15.35;7.95;;;;;;;;;;10405843;28;20028;-74
2023/09/18 09:41:29;;;;;;;15.00;7.97;;;;;;;;;;10410562;28;20033;-75
2023/09/18 09:46:30;;;;;;;15.30;7.28;;;;;;;;;;10409966;28;20391;-80
2023/09/18 09:51:31;;;;;;;15.43;6.38;;;;;;;;;;10421367;28;20013;-79
2023/09/18 09:56:41;;;;;;;10.30;6.15;;;;;;;;;;10410228;28;20144;-74
2023/09/18 10:01:43;;;;;;;11.45;6.50;;;;;;;;;;10416495;28;20025;-76
2023/09/18 10:06:44;;;;;;;8.55;4.47;;;;;;;;;;10416729;28;20104;-75
2023/09/18 10:11:46;;;;;;;5.80;4.28;;;;;;;;;;10411100;28;20009;-79
2023/09/18 10:16:52;;;;;;;4.43;3.88;;;;;;;;;;10410727;28;20118;-78
2023/09/18 10:22:00;;;;;;;7.00;3.80;;;;;;;;;;10414920;28;20052;-82
2023/09/18 10:27:04;;;;;;;4.63;2.75;;;;;;;;;;10415087;28;20032;-79
2023/09/18 10:32:04;;;;;;;6.30;4.13;;;;;;;;;;10427217;28;20059;-74
2023/09/18 10:37:07;;;;;;;10.68;4.75;;;;;;;;;;10411370;28;20475;-75
2023/09/18 10:42:08;;;;;;;8.65;4.53;;;;;;;;;;10423116;28;20160;-74
2023/09/18 10:47:10;;;;;;;9.82;3.38;;;;;;;;;;10425840;28;20021;-74
2023/09/18 10:52:13;;;;;;;4.75;3.00;;;;;;;;;;10409378;28;20414;-74
2023/09/18 10:57:15;;;;;;;6.85;3.20;;;;;;;;;;10425061;28;20048;-80
2023/09/18 11:02:16;;;;;;;5.32;2.92;;;;;;;;;;10414164;28;20021;-83
2023/09/18 11:07:22;;;;;;;5.03;3.60;;;;;;;;;;10420793;28;20492;-81
2023/09/18 11:12:42;;;;;;;6.72;3.75;;;;;;;;;;10422631;28;20021;-76
2023/09/18 11:17:42;;;;;;;8.10;3.60;;;;;;;;;;10370901;28;1199069;-82
2023/09/18 11:22:59;;;;;;;7.63;4.13;;;;;;;;;;10419196;28;20412;-80
2023/09/18 11:27:59;;;;;;;9.23;4.57;;;;;;;;;;10412707;28;20025;-79
2023/09/18 11:33:01;;;;;;;5.75;3.63;;;;;;;;;;10407611;28;20090;-83
2023/09/18 11:38:05;;;;;;;5.60;3.60;;;;;;;;;;10412110;28;20404;-75
2023/09/18 11:43:23;;;;;;;5.10;3.97;;;;;;;;;;10421143;28;20029;-83
2023/09/18 11:48:24;;;;;;;;;;;;;;;;;;10421399;28;20051;-76
2023/09/18 11:53:26;;;;;;;10.05;4.22;;;;;;;;;;10416343;28;20035;-77
2023/09/18 11:58:26;;;;;;;7.57;4.20;;;;;;;;;;10413751;28;21434;-76
2023/09/18 12:03:26;;;;;;;6.15;3.67;;;;;;;;;;10410433;28;20017;-74
2023/09/18 12:08:29;;;;;;;5.20;4.60;;;;;;;;;;10414586;28;20021;-77
2023/09/18 12:13:31;;;;;;;9.93;4.20;;;;;;;;;;10408842;28;20036;-81
2023/09/18 12:18:34;;;;;;;7.05;4.95;;;;;;;;;;10391903;28;20370;-75
2023/09/18 12:23:43;;;;;;;6.88;4.18;;;;;;;;;;10408426;28;20445;-81
2023/09/18 12:28:43;;;;;;;8.70;4.30;;;;;;;;;;10413712;28;20051;-80
2023/09/18 12:33:43;;;;;;;10.10;4.30;;;;;;;;;;10415362;28;20017;-74
2023/09/18 12:38:44;;;;;;;7.82;4.72;;;;;;;;;;10423996;28;20068;-80
2023/09/18 12:43:45;;;;;;;6.03;4.20;;;;;;;;;;10409332;28;20083;-79
2023/09/18 12:48:46;;;;;;;10.13;5.13;;;;;;;;;;10423172;28;20096;-73
2023/09/18 12:53:46;;;;;;;6.38;4.40;;;;;;;;;;10405432;28;20481;-78
2023/09/18 12:58:49;;;;;;;6.72;4.40;;;;;;;;;;10408075;28;20033;-81
2023/09/18 13:03:53;;;;;;;7.22;4.50;;;;;;;;;;10405263;28;20045;-84
2023/09/18 13:09:14;;;;;;;7.13;4.07;;;;;;;;;;10408516;28;20017;-81
2023/09/18 13:14:15;;;;;;;9.48;4.30;;;;;;;;;;10405905;28;20441;-82
2023/09/18 13:19:15;;;;;;;10.68;4.30;;;;;;;;;;10404454;28;20053;-73
2023/09/18 13:24:28;;;;;;;7.57;4.40;;;;;;;;;;10414066;28;20033;-74
2023/09/18 13:29:28;;;;;;;6.93;4.50;;;;;;;;;;10408792;28;20485;-80
2023/09/18 13:34:31;;;;;;;7.32;4.63;;;;;;;;;;10431483;28;20029;-79
2023/09/18 13:39:31;;;;;;;9.45;3.95;;;;;;;;;;10421620;28;20528;-78
2023/09/18 13:44:32;;;;;;;9.63;5.07;;;;;;;;;;10402982;28;20058;-83
2023/09/18 13:49:34;;;;;;;10.88;5.20;;;;;;;;;;10414211;28;20109;-74
2023/09/18 13:54:34;;;;;;;13.77;5.22;;;;;;;;;;10412381;28;20459;-77
2023/09/18 13:59:37;;;;;;;7.15;4.50;;;;;;;;;;10424234;28;20026;-77
2023/09/18 14:04:39;;;;;;;14.02;5.07;;;;;;;;;;10420735;28;20590;-80
2023/09/18 14:09:39;;;;;;;9.48;4.85;;;;;;;;;;10413533;28;20052;-75
2023/09/18 14:14:40;;;;;;;8.83;4.73;;;;;;;;;;10414447;28;20154;-81
2023/09/18 14:19:40;;;;;;;6.90;4.45;;;;;;;;;;10418665;28;20109;-73
2023/09/18 14:24:40;;;;;;;8.88;4.90;;;;;;;;;;10419762;28;20020;-75
2023/09/18 14:29:44;;;;;;;5.93;5.15;;;;;;;;;;10421640;28;21358;-78
2023/09/18 14:34:45;;;;;;;7.60;5.35;;;;;;;;;;10435267;28;20036;-77
2023/09/18 14:39:46;;;;;;;8.60;4.28;;;;;;;;;;10426065;28;20028;-79
2023/09/18 14:44:48;;;;;;;10.90;4.10;;;;;;;;;;10412256;28;20469;-76
2023/09/18 14:49:48;;;;;;;8.98;4.40;;;;;;;;;;10423547;28;20141;-81
2023/09/18 14:54:49;;;;;;;8.80;4.75;;;;;;;;;;10422646;28;20016;-82
2023/09/18 14:59:49;;;;;;;8.57;5.32;;;;;;;;;;10427112;28;20092;-73
2023/09/18 15:04:52;;;;;;;11.85;4.20;;;;;;;;;;10420695;28;20028;-83
2023/09/18 15:09:59;;;;;;;13.77;4.78;;;;;;;;;;10428208;28;20021;-78
2023/09/18 15:14:59;;;;;;;7.83;4.33;;;;;;;;;;10425648;28;20075;-75
2023/09/18 15:20:00;;;;;;;308.87;288.97;;;;;;;;;;10419222;28;20053;-79
2023/09/18 15:25:04;;;;;;;586.35;544.53;;;;;;;;;;10437998;28;20059;-82
2023/09/18 15:30:11;;;;;;;9.40;5.10;;;;;;;;;;10395181;28;20577;-75
2023/09/18 15:35:12;;;;;;;115.63;107.45;;;;;;;;;;10428663;28;20080;-78
2023/09/18 15:40:17;;;;;;;612.17;569.23;;;;;;;;;;10408214;28;20128;-76
2023/09/18 15:45:18;;;;;;;734.30;679.63;;;;;;;;;;10420162;28;20021;-80
2023/09/18 15:50:19;;;;;;;887.83;821.97;;;;;;;;;;10433730;28;20570;-73
2023/09/18 15:55:20;;;;;;;996.23;919.30;;;;;;;;;;10413050;28;20377;-76
2023/09/18 16:00:20;;;;;;;8.00;5.10;;;;;;;;;;10415774;28;20057;-76
2023/09/18 16:05:25;;;;;;;123.80;115.40;;;;;;;;;;10411726;28;20047;-77
2023/09/18 16:10:26;;;;;;;37.92;35.20;;;;;;;;;;10408529;28;20017;-74
2023/09/18 16:15:27;;;;;;;12.55;5.80;;;;;;;;;;10429172;28;20028;-75
2023/09/18 16:20:28;;;;;;;509.00;473.27;;;;;;;;;;10416459;28;20464;-75
2023/09/18 16:25:29;;;;;;;725.13;672.63;;;;;;;;;;10414389;28;20029;-81
2023/09/18 16:30:30;;;;;;;890.97;824.28;;;;;;;;;;10427727;28;20025;-80
2023/09/18 16:35:31;;;;;;;944.42;872.47;;;;;;;;;;10436729;28;20036;-74
2023/09/18 16:40:31;;;;;;;884.10;818.00;;;;;;;;;;10425734;28;20029;-81
2023/09/18 16:45:31;;;;;;;992.13;918.20;;;;;;;;;;10428727;28;20033;-79
2023/09/18 16:50:32;;;;;;;989.22;912.90;;;;;;;;;;10415930;28;20114;-78
2023/09/18 16:55:37;;;;;;;8.82;5.38;;;;;;;;;;10432502;28;20092;-71
2023/09/18 17:00:37;;;;;;;918.40;851.50;;;;;;;;;;10421012;28;20440;-76
2023/09/18 17:05:39;;;;;;;1048.63;966.03;;;;;;;;;;10427865;28;20063;-76
2023/09/18 17:10:42;;;;;;;1039.95;954.50;;;;;;;;;;10427914;28;20501;-80
2023/09/18 17:15:44;;;;;;;1058.28;965.95;;;;;;;;;;10430970;28;20017;-80
2023/09/18 17:20:44;;;;;;;1054.45;959.42;;;;;;;;;;10396873;28;20069;-81
2023/09/18 17:25:46;;;;;;;1031.32;934.88;;;;;;;;;;10372763;28;20033;-79
2023/09/18 17:30:49;;;;;;;7.35;5.50;;;;;;;;;;10367174;28;20037;-86
2023/09/18 17:35:51;;;;;;;1018.47;922.88;;;;;;;;;;10406486;28;20025;-72
2023/09/18 17:40:51;;;;;;;420.67;382.83;;;;;;;;;;10362160;28;20141;-86
2023/09/18 17:45:54;;;;;;;998.05;903.50;;;;;;;;;;10352740;28;20064;-77
2023/09/18 17:50:57;;;;;;;996.55;902.95;;;;;;;;;;10335547;28;20033;-71
2023/09/18 17:56:18;;;;;;;999.30;904.58;;;;;;;;;;10351637;28;20480;-71
2023/09/18 18:01:21;;;;;;;995.72;901.72;;;;;;;;;;10349251;28;20064;-75
2023/09/18 18:06:22;;;;;;;362.35;324.05;;;;;;;;;;10348970;28;20133;-82
2023/09/18 18:11:23;;;;;;;18.95;14.30;;;;;;;;;;10381896;28;20049;-77
2023/09/18 18:16:25;;;;;;;302.20;283.27;;;;;;;;;;10395140;28;20658;-78
2023/09/18 18:21:29;;;;;;;11.43;5.97;;;;;;;;;;10417893;28;20058;-84
2023/09/18 18:26:29;;;;;;;190.63;178.13;;;;;;;;;;10399456;28;20112;-77
2023/09/18 18:31:31;;;;;;;1006.38;925.45;;;;;;;;;;10395405;28;20101;-81
2023/09/18 18:36:32;;;;;;;965.67;873.50;;;;;;;;;;10387695;28;20049;-82
2023/09/18 18:41:36;;;;;;;1003.60;908.93;;;;;;;;;;10380508;28;20080;-83
2023/09/18 18:46:39;;;;;;;9.15;5.75;;;;;;;;;;10401991;28;20160;-83
2023/09/18 18:51:48;;;;;;;12.57;5.10;;;;;;;;;;10397182;28;20037;-82
2023/09/18 18:56:50;;;;;;;903.10;829.13;;;;;;;;;;10391678;28;20039;-83
2023/09/18 19:01:53;;;;;;;802.80;744.65;;;;;;;;;;10378689;28;20033;-79
2023/09/18 19:06:53;;;;;;;622.05;579.53;;;;;;;;;;10408948;28;20037;-82
2023/09/18 19:11:54;;;;;;;10.57;5.28;;;;;;;;;;10407224;28;20045;-78
2023/09/18 19:16:59;;;;;;;10.63;5.25;;;;;;;;;;10393570;28;20109;-69
2023/09/18 19:22:00;;;;;;;11.13;5.53;;;;;;;;;;10459784;28;20048;-70
2023/09/18 19:27:03;;;;;;;14.82;5.78;;;;;;;;;;10456087;28;20039;-76
2023/09/18 19:32:09;;;;;;;9.55;5.82;;;;;;;;;;10408415;28;20062;-77
2023/09/18 19:37:11;;;;;;;9.77;6.65;;;;;;;;;;10459084;28;20047;-73
2023/09/18 19:42:11;;;;;;;7.30;5.40;;;;;;;;;;10427519;28;20037;-74
2023/09/18 19:47:14;;;;;;;7.15;4.80;;;;;;;;;;10456678;28;20033;-80
2023/09/18 19:52:16;;;;;;;8.18;5.20;;;;;;;;;;10418356;28;20025;-80
2023/09/18 19:57:16;;;;;;;7.03;4.28;;;;;;;;;;10406435;28;20143;-81
2023/09/18 20:02:17;;;;;;;7.75;4.72;;;;;;;;;;10429519;28;20017;-75
2023/09/18 20:07:19;;;;;;;6.90;4.55;;;;;;;;;;10423999;28;20028;-74
2023/09/18 20:12:20;;;;;;;6.22;4.38;;;;;;;;;;10450073;28;20448;-79
2023/09/18 20:17:23;;;;;;;6.03;3.95;;;;;;;;;;10438739;28;20074;-81
2023/09/18 20:22:24;;;;;;;8.57;4.50;;;;;;;;;;10443075;28;20049;-78
2023/09/18 20:27:24;;;;;;;6.80;4.60;;;;;;;;;;10453787;28;20538;-72
2023/09/18 20:32:24;;;;;;;10.02;4.72;;;;;;;;;;10439318;28;20021;-76
2023/09/18 20:37:25;;;;;;;11.53;4.70;;;;;;;;;;10423243;28;20024;-79
2023/09/18 20:42:30;;;;;;;14.38;4.53;;;;;;;;;;10434549;28;20267;-79
2023/09/18 20:47:32;;;;;;;6.93;4.53;;;;;;;;;;10449462;28;20102;-79
2023/09/18 20:52:35;;;;;;;6.32;4.70;;;;;;;;;;10446432;28;20017;-80
2023/09/18 20:57:35;;;;;;;6.63;4.25;;;;;;;;;;10416795;28;20025;-79
2023/09/18 21:02:44;;;;;;;8.38;4.20;;;;;;;;;;10414260;28;20014;-83
2023/09/18 21:07:46;;;;;;;10.82;5.10;;;;;;;;;;10442858;28;20508;-83
2023/09/18 21:12:56;;;;;;;8.07;4.45;;;;;;;;;;10437393;28;20021;-79
2023/09/18 21:17:56;;;;;;;12.55;4.13;;;;;;;;;;10432655;28;20028;-62
2023/09/18 21:23:01;;;;;;;8.55;4.95;;;;;;;;;;10412685;28;20053;-79
2023/09/18 21:28:02;;;;;;;6.50;4.55;;;;;;;;;;10456623;28;20048;-81
2023/09/18 21:33:05;;;;;;;11.73;5.15;;;;;;;;;;10429777;28;20047;-82
2023/09/18 21:38:05;;;;;;;7.88;5.40;;;;;;;;;;10414797;28;20182;-80
2023/09/18 21:43:06;;;;;;;10.35;5.47;;;;;;;;;;10429981;28;20477;-78
2023/09/18 21:48:06;;;;;;;12.85;6.10;;;;;;;;;;10413209;28;20021;-76
2023/09/18 21:53:07;;;;;;;7.50;5.55;;;;;;;;;;10460180;28;20029;-81
2023/09/18 21:58:14;;;;;;;8.27;5.50;;;;;;;;;;10452892;28;20029;-77
2023/09/18 22:03:15;;;;;;;8.85;4.75;;;;;;;;;;10449375;28;20051;-77
2023/09/18 22:08:15;;;;;;;5.38;4.35;;;;;;;;;;10465536;28;20052;-78
2023/09/18 22:13:18;;;;;;;10.43;4.95;;;;;;;;;;10431661;28;20593;-70
2023/09/18 22:18:19;;;;;;;8.63;3.83;;;;;;;;;;10449506;28;20476;-77
2023/09/18 22:23:19;;;;;;;5.00;3.38;;;;;;;;;;10435882;28;20060;-76
2023/09/18 22:28:20;;;;;;;7.53;3.90;;;;;;;;;;10430490;28;20140;-74
2023/09/18 22:33:21;;;;;;;8.27;3.58;;;;;;;;;;10433885;28;20024;-77
2023/09/18 22:38:21;;;;;;;9.25;3.83;;;;;;;;;;10439664;28;20029;-81
2023/09/18 22:43:40;;;;;;;5.07;3.72;;;;;;;;;;10434349;28;20477;-75
2023/09/18 22:48:59;;;;;;;7.38;3.67;;;;;;;;;;10433790;28;20029;-78
2023/09/18 22:54:02;;;;;;;7.18;3.97;;;;;;;;;;10456113;28;20067;-78
2023/09/18 22:59:07;;;;;;;9.35;3.88;;;;;;;;;;10445302;28;20096;-70
2023/09/18 23:04:13;;;;;;;8.30;4.40;;;;;;;;;;10465328;28;20036;-82
2023/09/18 23:09:15;;;;;;;7.25;3.88;;;;;;;;;;10438045;28;20107;-76
2023/09/18 23:14:17;;;;;;;6.50;4.00;;;;;;;;;;10437546;28;20029;-76
2023/09/18 23:19:21;;;;;;;8.32;4.57;;;;;;;;;;10434994;28;20052;-76
2023/09/18 23:24:22;;;;;;;7.10;4.45;;;;;;;;;;10432419;28;20048;-81
2023/09/18 23:29:26;;;;;;;4.93;3.53;;;;;;;;;;10435239;28;20075;-81
2023/09/18 23:34:26;;;;;;;5.63;3.90;;;;;;;;;;10436719;28;20339;-81
2023/09/18 23:39:29;;;;;;;9.77;4.73;;;;;;;;;;10443302;28;20044;-82
2023/09/18 23:44:32;;;;;;;6.95;4.20;;;;;;;;;;10417868;28;20417;-78
2023/09/18 23:49:33;;;;;;;5.53;4.25;;;;;;;;;;10431255;28;20420;-78
2023/09/18 23:54:33;;;;;;;8.75;4.40;;;;;;;;;;10430580;28;20031;-79
2023/09/18 23:59:37;;;;;;;8.50;4.32;;;;;;;;;;10420044;28;20116;-77
